createdAt,value
2019-02-11T00:01:11.477Z,26.30
2019-02-11T00:03:39.981Z,25.80
2019-02-11T00:06:08.485Z,24.70
2019-02-11T00:08:37.192Z,25.50
2019-02-11T00:11:05.795Z,26.10
2019-02-11T00:13:34.339Z,25.60
2019-02-11T00:16:03.017Z,25.90
2019-02-11T00:18:31.652Z,25.80
2019-02-11T00:21:00.152Z,26.50
2019-02-11T00:23:29.077Z,26.00
2019-02-11T00:25:57.635Z,26.70
2019-02-11T00:28:26.563Z,26.30
2019-02-11T00:30:55.234Z,26.30
2019-02-11T00:33:23.730Z,26.20
2019-02-11T00:35:52.233Z,26.70
2019-02-11T00:38:20.761Z,25.80
2019-02-11T00:40:49.251Z,26.00
2019-02-11T00:43:19.446Z,25.50
2019-02-11T00:45:48.134Z,26.50
2019-02-11T00:48:16.643Z,26.80
2019-02-11T00:50:45.273Z,26.10
2019-02-11T00:53:13.870Z,26.30
2019-02-11T00:55:42.442Z,25.30
2019-02-11T00:58:11.098Z,25.30
2019-02-11T01:00:39.830Z,24.90
2019-02-11T01:03:08.395Z,24.40
2019-02-11T01:05:37.023Z,24.10
2019-02-11T01:08:05.629Z,24.30
2019-02-11T01:10:34.196Z,24.20
2019-02-11T01:13:02.702Z,25.00
2019-02-11T01:15:31.318Z,25.20
2019-02-11T01:17:59.883Z,25.00
2019-02-11T01:20:28.437Z,24.60
2019-02-11T01:22:57.032Z,24.30
2019-02-11T01:25:25.661Z,23.60
2019-02-11T01:27:54.300Z,23.70
2019-02-11T01:30:22.934Z,24.20
2019-02-11T01:32:51.503Z,24.30
2019-02-11T01:35:19.992Z,24.30
2019-02-11T01:37:48.979Z,24.40
2019-02-11T01:40:17.535Z,24.40
2019-02-11T01:42:46.089Z,25.60
2019-02-11T01:45:14.924Z,26.30
2019-02-11T01:47:43.605Z,26.80
2019-02-11T01:50:12.933Z,27.00
2019-02-11T01:52:41.557Z,27.10
2019-02-11T01:55:10.125Z,27.50
2019-02-11T01:57:38.697Z,27.60
2019-02-11T02:00:10.564Z,27.30
2019-02-11T02:02:39.195Z,27.30
2019-02-11T02:05:08.855Z,27.10
2019-02-11T02:07:37.388Z,27.40
2019-02-11T02:10:08.865Z,27.60
2019-02-11T02:12:37.429Z,27.70
2019-02-11T02:15:07.609Z,27.60
2019-02-11T02:17:36.104Z,27.40
2019-02-11T02:20:07.442Z,27.10
2019-02-11T02:22:36.063Z,26.50
2019-02-11T02:25:06.344Z,26.80
2019-02-11T02:27:34.980Z,26.70
2019-02-11T02:30:03.923Z,26.80
2019-02-11T02:32:32.410Z,26.80
2019-02-11T02:35:01.049Z,26.90
2019-02-11T02:37:29.642Z,27.20
2019-02-11T02:39:58.202Z,26.70
2019-02-11T02:42:26.832Z,25.70
2019-02-11T02:44:55.509Z,24.80
2019-02-11T02:47:24.137Z,24.80
2019-02-11T02:49:52.769Z,25.20
2019-02-11T02:52:21.295Z,24.30
2019-02-11T02:54:49.927Z,23.70
2019-02-11T02:57:18.610Z,23.00
2019-02-11T02:59:47.149Z,22.90
2019-02-11T03:02:15.818Z,22.60
2019-02-11T03:04:44.338Z,22.00
2019-02-11T03:07:12.937Z,21.80
2019-02-11T03:09:41.491Z,21.90
2019-02-11T03:12:09.996Z,21.90
2019-02-11T03:14:38.666Z,22.10
2019-02-11T03:17:07.286Z,21.90
2019-02-11T03:19:35.917Z,21.70
2019-02-11T03:22:04.547Z,21.40
2019-02-11T03:24:33.133Z,21.90
2019-02-11T03:27:01.699Z,22.90
2019-02-11T03:29:30.236Z,22.10
2019-02-11T03:31:59.980Z,22.60
2019-02-11T03:34:28.860Z,22.20
2019-02-11T03:36:57.520Z,22.40
2019-02-11T03:39:26.015Z,23.00
2019-02-11T03:41:54.656Z,23.60
2019-02-11T03:44:23.316Z,23.30
2019-02-11T03:46:51.871Z,23.90
2019-02-11T03:49:20.793Z,24.40
2019-02-11T03:51:49.332Z,24.70
2019-02-11T03:54:17.877Z,24.30
2019-02-11T03:56:46.454Z,24.30
2019-02-11T03:59:15.454Z,25.40
2019-02-11T04:01:44.091Z,25.50
2019-02-11T04:04:12.719Z,25.40
2019-02-11T04:06:41.322Z,25.70
2019-02-11T04:09:09.966Z,26.10
2019-02-11T04:11:38.606Z,26.50
2019-02-11T04:14:07.219Z,26.80
2019-02-11T04:16:35.839Z,26.80
2019-02-11T04:19:04.475Z,26.70
2019-02-11T04:21:33.142Z,27.30
2019-02-11T04:24:01.688Z,26.90
2019-02-11T04:26:31.838Z,27.00
2019-02-11T04:29:00.442Z,27.30
2019-02-11T04:31:29.070Z,26.60
2019-02-11T04:33:58.298Z,26.90
2019-02-11T04:36:27.037Z,27.30
2019-02-11T04:38:55.599Z,26.50
2019-02-11T04:41:24.147Z,25.80
2019-02-11T04:43:52.813Z,24.90
2019-02-11T04:46:21.768Z,23.80
2019-02-11T04:48:50.330Z,23.10
2019-02-11T04:51:18.995Z,22.00
2019-02-11T04:53:47.625Z,21.60
2019-02-11T04:56:16.175Z,21.80
2019-02-11T04:58:44.701Z,21.00
2019-02-11T05:01:13.333Z,20.90
2019-02-11T05:03:41.844Z,21.20
2019-02-11T05:06:10.488Z,20.90
2019-02-11T05:08:39.043Z,20.60
2019-02-11T05:11:07.531Z,20.90
2019-02-11T05:13:36.069Z,20.50
2019-02-11T05:16:04.633Z,20.80
2019-02-11T05:18:33.183Z,21.00
2019-02-11T05:21:01.791Z,21.00
2019-02-11T05:23:30.365Z,20.50
2019-02-11T05:25:58.917Z,20.40
2019-02-11T05:28:27.520Z,20.00
2019-02-11T05:30:56.082Z,20.10
2019-02-11T05:33:24.647Z,20.40
2019-02-11T05:35:53.189Z,20.90
2019-02-11T05:38:21.683Z,20.80
2019-02-11T05:40:50.248Z,21.50
2019-02-11T05:43:18.838Z,21.50
2019-02-11T05:45:47.401Z,21.60
2019-02-11T05:48:15.965Z,21.30
2019-02-11T05:50:44.570Z,21.70
2019-02-11T05:53:13.069Z,20.80
2019-02-11T05:55:41.953Z,21.10
2019-02-11T05:58:10.479Z,21.00
2019-02-11T06:00:39.048Z,20.90
2019-02-11T06:03:09.546Z,21.00
2019-02-11T06:05:37.807Z,20.60
2019-02-11T06:08:06.375Z,20.30
2019-02-11T06:10:35.002Z,19.80
2019-02-11T06:13:03.601Z,18.70
2019-02-11T06:15:32.167Z,18.20
2019-02-11T06:18:00.744Z,19.70
2019-02-11T06:20:29.273Z,20.70
2019-02-11T06:22:57.768Z,20.90
2019-02-11T06:25:26.358Z,21.30
2019-02-11T06:27:54.879Z,21.50
2019-02-11T06:30:23.464Z,21.60
2019-02-11T06:32:52.121Z,21.60
2019-02-11T06:35:20.846Z,22.00
2019-02-11T06:37:49.371Z,22.10
2019-02-11T06:40:17.938Z,22.50
2019-02-11T06:42:46.573Z,22.60
2019-02-11T06:45:15.087Z,22.40
2019-02-11T06:47:43.602Z,22.40
2019-02-11T06:50:16.151Z,22.40
2019-02-11T06:52:44.641Z,22.20
2019-02-11T06:55:13.219Z,22.10
2019-02-11T06:57:41.820Z,22.00
2019-02-11T07:00:16.607Z,21.70
2019-02-11T07:02:45.209Z,21.70
2019-02-11T07:05:13.896Z,21.90
2019-02-11T07:07:42.541Z,22.40
2019-02-11T07:10:11.600Z,22.50
2019-02-11T07:12:40.128Z,22.60
2019-02-11T07:15:11.503Z,22.20
2019-02-11T07:17:40.060Z,22.50
2019-02-11T07:20:10.165Z,22.70
2019-02-11T07:22:38.733Z,23.10
2019-02-11T07:25:08.494Z,22.60
2019-02-11T07:27:37.100Z,22.40
2019-02-11T07:30:08.815Z,21.70
2019-02-11T07:32:37.384Z,21.40
2019-02-11T07:35:06.000Z,22.00
2019-02-11T07:37:34.947Z,22.80
2019-02-11T07:40:04.706Z,22.50
2019-02-11T07:42:34.883Z,22.10
2019-02-11T07:45:04.724Z,22.50
2019-02-11T07:47:33.358Z,22.50
2019-02-11T07:50:02.026Z,22.40
2019-02-11T07:52:30.585Z,22.60
2019-02-11T07:54:59.212Z,22.00
2019-02-11T07:57:27.820Z,21.60
2019-02-11T07:59:57.346Z,20.90
2019-02-11T08:02:25.962Z,20.70
2019-02-11T08:04:54.575Z,20.60
2019-02-11T08:07:23.206Z,20.70
2019-02-11T08:09:51.771Z,20.70
2019-02-11T08:12:20.377Z,19.70
2019-02-11T08:14:49.017Z,19.60
2019-02-11T08:17:17.647Z,20.50
2019-02-11T08:19:46.250Z,19.80
2019-02-11T08:22:14.956Z,19.20
2019-02-11T08:24:43.516Z,18.40
2019-02-11T08:27:12.192Z,14.90
2019-02-11T08:29:40.766Z,15.30
2019-02-11T08:32:09.336Z,15.40
2019-02-11T08:34:38.027Z,16.30
2019-02-11T08:37:07.161Z,15.90
2019-02-11T08:39:35.785Z,15.10
2019-02-11T08:42:04.519Z,14.60
2019-02-11T08:44:33.674Z,14.60
2019-02-11T08:47:02.787Z,14.50
2019-02-11T08:49:31.390Z,15.70
2019-02-11T08:51:59.960Z,15.20
2019-02-11T08:54:28.530Z,15.70
2019-02-11T08:56:57.488Z,15.90
2019-02-11T08:59:26.111Z,16.00
2019-02-11T09:01:54.701Z,16.90
2019-02-11T09:04:23.388Z,16.40
2019-02-11T09:06:51.964Z,16.50
2019-02-11T09:09:20.588Z,17.00
2019-02-11T09:11:49.201Z,17.00
2019-02-11T09:14:17.818Z,17.00
2019-02-11T09:16:46.497Z,17.40
2019-02-11T09:19:15.166Z,16.40
2019-02-11T09:21:43.807Z,15.80
2019-02-11T09:24:12.325Z,15.90
2019-02-11T09:26:41.389Z,16.50
2019-02-11T09:29:09.959Z,16.40
2019-02-11T09:31:38.520Z,17.10
2019-02-11T09:34:07.191Z,18.10
2019-02-11T09:36:35.757Z,18.60
2019-02-11T09:39:05.488Z,18.70
2019-02-11T09:41:34.169Z,19.50
2019-02-11T09:44:03.149Z,19.20
2019-02-11T09:46:31.920Z,19.00
2019-02-11T09:49:00.688Z,18.50
2019-02-11T09:51:29.408Z,17.60
2019-02-11T09:53:58.202Z,17.80
2019-02-11T09:56:27.027Z,18.00
2019-02-11T09:58:55.687Z,17.20
2019-02-11T10:01:24.693Z,17.70
2019-02-11T10:03:53.386Z,18.70
2019-02-11T10:06:21.990Z,19.60
2019-02-11T10:08:50.479Z,19.70
2019-02-11T10:11:19.078Z,19.90
2019-02-11T10:13:47.645Z,19.80
2019-02-11T10:16:16.195Z,20.20
2019-02-11T10:18:44.807Z,20.30
2019-02-11T10:21:13.450Z,19.50
2019-02-11T10:23:41.941Z,19.40
2019-02-11T10:26:10.551Z,18.70
2019-02-11T10:28:39.536Z,19.20
2019-02-11T10:31:08.042Z,19.20
2019-02-11T10:33:36.639Z,18.70
2019-02-11T10:36:05.207Z,19.60
2019-02-11T10:38:36.431Z,19.90
2019-02-11T10:41:04.045Z,20.00
2019-02-11T10:43:32.549Z,20.70
2019-02-11T10:46:01.101Z,20.80
2019-02-11T10:48:29.889Z,20.40
2019-02-11T10:50:58.454Z,21.00
2019-02-11T10:53:27.007Z,21.50
2019-02-11T10:55:57.264Z,22.00
2019-02-11T10:58:25.756Z,22.20
2019-02-11T11:00:54.483Z,21.60
2019-02-11T11:03:23.156Z,20.80
2019-02-11T11:05:51.649Z,21.00
2019-02-11T11:08:20.199Z,21.50
2019-02-11T11:10:48.794Z,21.40
2019-02-11T11:13:17.286Z,21.00
2019-02-11T11:15:45.776Z,20.70
2019-02-11T11:18:14.385Z,21.10
2019-02-11T11:20:42.960Z,20.60
2019-02-11T11:23:11.460Z,21.10
2019-02-11T11:25:40.068Z,21.70
2019-02-11T11:28:08.627Z,20.90
2019-02-11T11:30:37.365Z,20.40
2019-02-11T11:33:06.053Z,21.10
2019-02-11T11:35:34.558Z,19.50
2019-02-11T11:38:03.116Z,20.20
2019-02-11T11:40:31.801Z,19.60
2019-02-11T11:43:00.437Z,20.10
2019-02-11T11:45:29.151Z,18.10
2019-02-11T11:47:57.697Z,18.50
2019-02-11T11:50:26.251Z,18.50
2019-02-11T11:52:54.823Z,18.40
2019-02-11T11:55:23.912Z,19.50
2019-02-11T11:57:52.820Z,19.50
2019-02-11T12:00:23.364Z,19.50
2019-02-11T12:03:01.959Z,18.90
2019-02-11T12:05:22.224Z,18.70
2019-02-11T12:07:50.793Z,18.60
2019-02-11T12:10:19.474Z,18.50
2019-02-11T12:12:48.055Z,18.60
2019-02-11T12:15:19.656Z,19.00
2019-02-11T12:17:48.351Z,17.70
2019-02-11T12:20:17.058Z,17.60
2019-02-11T12:22:45.637Z,17.50
2019-02-11T12:25:16.798Z,18.20
2019-02-11T12:27:45.358Z,19.00
2019-02-11T12:30:25.056Z,19.50
2019-02-11T12:32:55.415Z,19.70
2019-02-11T12:35:23.953Z,19.90
2019-02-11T12:37:52.562Z,20.00
2019-02-11T12:40:21.045Z,19.80
2019-02-11T12:42:52.853Z,19.00
2019-02-11T12:45:24.707Z,18.20
2019-02-11T12:47:53.307Z,18.20
2019-02-11T12:50:21.931Z,18.90
2019-02-11T12:52:50.602Z,19.70
2019-02-11T12:55:19.513Z,20.30
2019-02-11T12:57:48.065Z,21.00
2019-02-11T13:00:19.791Z,20.00
2019-02-11T13:02:48.491Z,19.70
2019-02-11T13:05:21.321Z,19.90
2019-02-11T13:07:47.571Z,20.40
2019-02-11T13:10:18.714Z,19.70
2019-02-11T13:12:47.254Z,20.10
2019-02-11T13:15:41.638Z,18.60
2019-02-11T13:17:47.116Z,19.20
2019-02-11T13:20:17.052Z,19.20
2019-02-11T13:22:45.668Z,18.90
2019-02-11T13:25:17.585Z,19.10
2019-02-11T13:27:46.573Z,19.40
2019-02-11T13:30:17.491Z,20.10
2019-02-11T13:32:47.086Z,19.90
2019-02-11T13:35:15.831Z,19.40
2019-02-11T13:37:44.649Z,20.30
2019-02-11T13:40:13.423Z,20.00
2019-02-11T13:42:42.003Z,19.90
2019-02-11T13:45:18.814Z,19.60
2019-02-11T13:47:57.967Z,19.30
2019-02-11T13:50:20.213Z,19.20
2019-02-11T13:52:48.979Z,19.70
2019-02-11T13:55:17.615Z,19.50
2019-02-11T13:57:46.187Z,19.90
2019-02-11T14:00:23.780Z,20.50
2019-02-11T14:02:57.255Z,19.40
2019-02-11T14:05:26.389Z,18.80
2019-02-11T14:07:54.936Z,18.20
2019-02-11T14:10:23.520Z,17.10
2019-02-11T14:12:52.088Z,16.30
2019-02-11T14:17:50.384Z,16.70
2019-02-11T14:25:16.618Z,17.20
2019-02-11T14:27:45.118Z,17.40
2019-02-11T14:30:21.480Z,16.70
2019-02-11T14:32:50.061Z,16.80
2019-02-11T14:35:19.741Z,16.80
2019-02-11T14:37:48.334Z,17.20
2019-02-11T14:40:17.019Z,17.10
2019-02-11T14:42:45.631Z,16.80
2019-02-11T14:45:16.230Z,17.20
2019-02-11T14:47:44.984Z,17.60
2019-02-11T14:50:13.622Z,18.30
2019-02-11T14:52:42.185Z,18.60
2019-02-11T14:55:11.261Z,18.80
2019-02-11T14:57:39.870Z,19.30
2019-02-11T15:00:15.356Z,18.70
2019-02-11T15:02:43.969Z,19.00
2019-02-11T15:05:14.504Z,18.00
2019-02-11T15:07:42.896Z,17.20
2019-02-11T15:10:12.732Z,15.80
2019-02-11T15:12:41.267Z,15.20
2019-02-11T15:15:11.116Z,14.90
2019-02-11T15:17:41.197Z,14.60
2019-02-11T15:20:14.587Z,13.60
2019-02-11T15:22:43.235Z,14.00
2019-02-11T15:25:13.685Z,14.80
2019-02-11T15:27:42.376Z,15.10
2019-02-11T15:30:13.414Z,15.60
2019-02-11T15:32:41.942Z,15.40
2019-02-11T15:35:11.431Z,14.60
2019-02-11T15:37:40.120Z,15.00
2019-02-11T15:40:20.237Z,15.60
2019-02-11T15:42:48.804Z,15.80
2019-02-11T15:45:17.421Z,16.10
2019-02-11T15:47:46.037Z,15.60
2019-02-11T15:50:17.831Z,15.00
2019-02-11T15:52:46.466Z,14.20
2019-02-11T15:55:20.996Z,13.70
2019-02-11T15:57:49.563Z,13.80
2019-02-11T16:00:20.671Z,14.30
2019-02-11T16:02:51.439Z,15.10
2019-02-11T16:05:19.523Z,15.00
2019-02-11T16:07:48.706Z,15.30
2019-02-11T16:10:23.369Z,14.90
2019-02-11T16:12:52.066Z,14.10
2019-02-11T16:15:20.679Z,14.30
2019-02-11T16:17:49.375Z,14.10
2019-02-11T16:20:18.016Z,14.10
2019-02-11T16:22:46.662Z,14.50
2019-02-11T16:25:15.878Z,15.70
2019-02-11T16:27:44.512Z,15.30
2019-02-11T16:30:15.184Z,15.80
2019-02-11T16:32:43.908Z,16.30
2019-02-11T16:35:14.069Z,16.60
2019-02-11T16:37:43.130Z,16.60
2019-02-11T16:40:14.782Z,17.40
2019-02-11T16:42:43.432Z,16.80
2019-02-11T16:45:12.024Z,17.60
2019-02-11T16:47:40.725Z,17.40
2019-02-11T16:50:13.454Z,17.00
2019-02-11T16:52:42.086Z,17.50
2019-02-11T16:55:11.867Z,18.00
2019-02-11T16:57:40.538Z,18.80
2019-02-11T17:00:17.680Z,19.10
2019-02-11T17:02:46.272Z,19.40
2019-02-11T17:05:15.033Z,19.60
2019-02-11T17:07:43.724Z,19.10
2019-02-11T17:10:13.874Z,19.40
2019-02-11T17:12:42.523Z,20.30
2019-02-11T17:15:16.196Z,20.40
2019-02-11T17:17:44.839Z,20.00
2019-02-11T17:20:14.787Z,19.90
2019-02-11T17:22:43.580Z,20.10
2019-02-11T17:25:12.835Z,20.30
2019-02-11T17:27:41.520Z,21.10
2019-02-11T17:30:36.517Z,20.60
2019-02-11T17:33:05.164Z,20.30
2019-02-11T17:35:33.730Z,20.30
2019-02-11T17:38:02.396Z,19.70
2019-02-11T17:40:31.044Z,19.70
2019-02-11T17:42:59.680Z,18.70
2019-02-11T17:45:32.299Z,18.20
2019-02-11T17:48:00.946Z,18.30
2019-02-11T17:50:31.159Z,18.30
2019-02-11T17:53:02.983Z,18.30
2019-02-11T17:55:31.932Z,18.50
2019-02-11T17:58:00.493Z,18.20
2019-02-11T18:00:36.513Z,18.60
2019-02-11T18:03:05.015Z,17.80
2019-02-11T18:05:36.801Z,17.80
2019-02-11T18:08:05.491Z,17.80
2019-02-11T18:10:34.422Z,17.60
2019-02-11T18:13:03.057Z,18.10
2019-02-11T18:15:31.650Z,17.20
2019-02-11T18:18:00.302Z,17.20
2019-02-11T18:20:28.943Z,16.70
2019-02-11T18:22:57.666Z,16.90
2019-02-11T18:25:27.167Z,16.90
2019-02-11T18:27:55.838Z,17.50
2019-02-11T18:30:24.516Z,17.80
2019-02-11T18:32:53.167Z,17.80
2019-02-11T18:35:22.706Z,16.30
2019-02-11T18:37:51.346Z,15.90
2019-02-11T18:40:20.892Z,16.30
2019-02-11T18:42:49.530Z,16.60
2019-02-11T18:45:18.529Z,15.90
2019-02-11T18:47:47.186Z,17.00
2019-02-11T18:50:16.106Z,16.00
2019-02-11T18:52:44.810Z,16.70
2019-02-11T18:55:17.753Z,16.20
2019-02-11T18:57:46.331Z,15.40
2019-02-11T19:00:20.885Z,15.30
2019-02-11T19:02:49.606Z,14.90
2019-02-11T19:05:19.346Z,14.80
2019-02-11T19:12:46.709Z,14.00
2019-02-11T19:17:45.955Z,14.50
2019-02-11T19:20:15.985Z,14.20
2019-02-11T19:30:12.614Z,14.00
2019-02-11T19:32:41.259Z,14.60
2019-02-11T19:35:09.919Z,13.40
2019-02-11T19:37:38.601Z,14.00
2019-02-11T19:40:10.696Z,13.90
2019-02-11T19:47:39.991Z,12.80
2019-02-11T19:50:13.741Z,13.60
2019-02-11T19:52:42.433Z,13.30
2019-02-11T19:57:39.857Z,13.80
2019-02-11T20:05:15.784Z,13.40
2019-02-11T20:10:21.469Z,12.50
2019-02-11T20:12:50.155Z,13.10
2019-02-11T20:15:24.386Z,13.00
2019-02-11T20:17:53.450Z,13.10
2019-02-11T20:20:23.714Z,12.20
2019-02-11T20:27:49.001Z,12.40
2019-02-11T20:35:24.978Z,11.40
2019-02-11T20:40:25.110Z,11.80
2019-02-11T20:42:59.499Z,11.90
2019-02-11T20:45:29.250Z,12.10
2019-02-11T20:47:57.799Z,12.10
2019-02-11T20:50:26.404Z,11.50
2019-02-11T20:52:55.465Z,12.20
2019-02-11T20:55:24.037Z,12.60
2019-02-11T20:57:58.185Z,12.70
2019-02-11T21:00:26.905Z,12.70
2019-02-11T21:02:55.555Z,12.90
2019-02-11T21:05:24.457Z,12.30
2019-02-11T21:07:53.125Z,11.40
2019-02-11T21:10:23.797Z,11.50
2019-02-11T21:15:20.745Z,12.00
2019-02-11T21:27:56.256Z,12.00
2019-02-11T21:30:24.829Z,11.20
2019-02-11T21:32:53.409Z,11.70
2019-02-11T21:35:22.084Z,12.90
2019-02-11T21:37:50.671Z,12.10
2019-02-11T21:40:19.322Z,12.40
2019-02-11T21:45:16.286Z,12.10
2019-02-11T21:47:44.922Z,12.00
2019-02-11T21:55:13.955Z,11.90
2019-02-11T21:57:42.572Z,12.50
2019-02-11T22:02:41.042Z,14.00
2019-02-11T22:05:09.723Z,13.90
2019-02-11T22:07:38.230Z,13.80
2019-02-11T22:10:09.987Z,13.60
2019-02-11T22:12:39.091Z,13.40
2019-02-11T22:15:09.233Z,14.40
2019-02-11T22:20:19.414Z,13.40
2019-02-11T22:22:48.047Z,14.10
2019-02-11T22:25:16.571Z,13.90
2019-02-11T22:30:15.514Z,13.30
2019-02-11T22:32:44.155Z,13.50
2019-02-11T22:35:12.821Z,13.50
2019-02-11T22:37:41.262Z,14.50
2019-02-11T22:40:13.297Z,14.90
2019-02-11T22:45:20.427Z,14.40
2019-02-11T22:47:49.039Z,14.10
2019-02-11T22:52:45.870Z,14.90
2019-02-11T22:55:15.542Z,15.10
2019-02-11T22:57:44.123Z,15.20
2019-02-11T23:00:47.908Z,15.20
2019-02-11T23:03:16.487Z,15.10
2019-02-11T23:05:45.125Z,14.70
2019-02-11T23:08:13.729Z,13.40
2019-02-11T23:13:11.079Z,12.70
2019-02-11T23:18:08.079Z,13.10
2019-02-11T23:23:04.886Z,12.90
2019-02-11T23:25:33.461Z,12.80
2019-02-11T23:28:01.954Z,12.10
2019-02-11T23:32:58.905Z,12.20
2019-02-11T23:35:27.536Z,12.40
2019-02-11T23:37:56.077Z,12.50
2019-02-11T23:40:24.702Z,13.70
2019-02-11T23:42:53.273Z,13.70
2019-02-11T23:45:22.803Z,15.20
2019-02-11T23:47:51.367Z,15.60
2019-02-11T23:50:20.063Z,15.40
2019-02-11T23:52:48.614Z,16.40
2019-02-11T23:55:17.255Z,16.50
2019-02-11T23:57:45.887Z,15.80
